Bessie, Oklahoma
Current Conditions -  °F | °C
As of 12:15 AM on Monday 22 Dec 2014 (Local Time) from KCLK Reporting Station
Clear Clear  
Wind Chill: 39°   Ceiling: Unl
Heat Index: 45°   Visibility: 7mi
Dew Point: 41°   Wind: 12mph
Humidity: 87%   Direction: 140°SE
Pressure: 29.58"   Gusts: NA
Location:  35.39°N, 98.99°W
Report Text: KCLK 220615Z AUTO 14010KT 7SM CLR 07/05 A2958 RMK AO2
Loading
Personal Weather Stations






























Interactive Weather Map New forecast layout! Learn more

10-Day Weather Forecast

Advertisements
Track Severe Weather on mobile